createdAt,value
2022-11-03T00:01:44.100Z,21.95
2022-11-03T00:04:12.805Z,21.94
2022-11-03T00:06:41.023Z,21.93
2022-11-03T00:09:10.001Z,21.94
2022-11-03T00:11:38.380Z,21.93
2022-11-03T00:14:06.130Z,21.91
2022-11-03T00:16:33.356Z,21.92
2022-11-03T00:18:59.852Z,21.92
2022-11-03T00:21:26.788Z,21.92
2022-11-03T00:23:53.679Z,21.93
2022-11-03T00:26:21.589Z,21.92
2022-11-03T00:28:53.074Z,21.90
2022-11-03T00:31:22.730Z,21.92
2022-11-03T00:33:49.834Z,21.91
2022-11-03T00:36:21.957Z,21.92
2022-11-03T00:38:48.462Z,21.90
2022-11-03T00:41:15.897Z,21.90
2022-11-03T00:43:42.285Z,21.88
2022-11-03T00:46:09.750Z,21.89
2022-11-03T00:48:36.768Z,21.87
2022-11-03T00:51:20.892Z,21.86
2022-11-03T00:53:58.559Z,21.84
2022-11-03T00:56:26.890Z,21.84
2022-11-03T00:58:54.719Z,21.85
2022-11-03T01:01:22.588Z,21.83
2022-11-03T01:04:10.428Z,21.83
2022-11-03T01:06:50.194Z,21.83
2022-11-03T01:09:19.433Z,21.84
2022-11-03T01:12:09.964Z,21.82
2022-11-03T01:14:40.876Z,21.83
2022-11-03T01:17:10.196Z,21.83
2022-11-03T01:19:36.885Z,21.82
2022-11-03T01:22:06.456Z,21.82
2022-11-03T01:24:36.290Z,21.82
2022-11-03T01:27:03.031Z,21.81
2022-11-03T01:29:29.533Z,21.81
2022-11-03T01:31:55.979Z,21.81
2022-11-03T01:34:22.811Z,21.82
2022-11-03T01:36:49.754Z,21.80
2022-11-03T01:39:18.741Z,21.79
2022-11-03T01:41:47.734Z,21.79
2022-11-03T01:44:14.119Z,21.80
2022-11-03T01:47:02.727Z,21.79
2022-11-03T01:49:55.449Z,21.80
2022-11-03T01:52:31.659Z,21.79
2022-11-03T01:55:04.164Z,21.78
2022-11-03T01:57:38.879Z,21.77
2022-11-03T02:00:06.557Z,21.77
2022-11-03T02:02:33.105Z,21.77
2022-11-03T02:05:02.128Z,21.78
2022-11-03T02:07:36.652Z,21.76
2022-11-03T02:10:03.328Z,21.75
2022-11-03T02:12:30.763Z,21.76
2022-11-03T02:15:02.688Z,21.77
2022-11-03T02:17:32.030Z,21.77
2022-11-03T02:20:03.372Z,21.75
2022-11-03T02:23:19.559Z,21.73
2022-11-03T02:25:54.943Z,21.74
2022-11-03T02:28:27.971Z,21.73
2022-11-03T02:31:18.261Z,21.72
2022-11-03T02:34:03.367Z,21.70
2022-11-03T02:36:37.455Z,21.70
2022-11-03T02:39:10.808Z,21.69
2022-11-03T02:41:39.771Z,21.72
2022-11-03T02:44:14.382Z,21.69
2022-11-03T02:46:44.238Z,21.69
2022-11-03T02:49:10.765Z,21.69
2022-11-03T02:51:37.530Z,21.69
2022-11-03T02:54:15.846Z,21.69
2022-11-03T02:57:06.119Z,21.69
2022-11-03T02:59:41.111Z,21.68
2022-11-03T03:02:11.681Z,21.68
2022-11-03T03:04:46.907Z,21.66
2022-11-03T03:07:17.246Z,21.66
2022-11-03T03:09:51.767Z,21.67
2022-11-03T03:12:20.442Z,21.66
2022-11-03T03:14:48.707Z,21.67
2022-11-03T03:17:19.360Z,21.67
2022-11-03T03:20:24.382Z,21.66
2022-11-03T03:22:58.834Z,21.65
2022-11-03T03:25:32.732Z,21.64
2022-11-03T03:28:15.911Z,21.63
2022-11-03T03:30:45.232Z,21.63
2022-11-03T03:33:13.918Z,21.64
2022-11-03T03:35:44.589Z,21.62
2022-11-03T03:38:20.643Z,21.63
2022-11-03T03:40:51.366Z,21.63
2022-11-03T03:43:20.295Z,21.62
2022-11-03T03:45:51.886Z,21.61
2022-11-03T03:48:18.663Z,21.62
2022-11-03T03:50:48.670Z,21.60
2022-11-03T03:53:18.055Z,21.61
2022-11-03T03:55:48.237Z,21.62
2022-11-03T03:58:15.955Z,21.62
2022-11-03T04:00:43.010Z,21.61
2022-11-03T04:03:18.171Z,21.61
2022-11-03T04:05:45.705Z,21.61
2022-11-03T04:08:13.497Z,21.59
2022-11-03T04:10:40.030Z,21.61
2022-11-03T04:13:25.285Z,21.60
2022-11-03T04:15:51.730Z,21.59
2022-11-03T04:18:40.612Z,21.59
2022-11-03T04:21:30.431Z,21.58
2022-11-03T04:23:57.257Z,21.58
2022-11-03T04:26:24.199Z,21.58
2022-11-03T04:28:53.161Z,21.57
2022-11-03T04:31:20.706Z,21.59
2022-11-03T04:33:48.222Z,21.59
2022-11-03T04:36:17.694Z,21.57
2022-11-03T04:38:45.106Z,21.57
2022-11-03T04:41:24.393Z,21.55
2022-11-03T04:43:52.713Z,21.55
2022-11-03T04:46:27.809Z,21.55
2022-11-03T04:48:58.608Z,21.57
2022-11-03T04:51:27.718Z,21.55
2022-11-03T04:54:01.038Z,21.53
2022-11-03T04:56:27.723Z,21.54
2022-11-03T04:58:54.356Z,21.54
2022-11-03T05:01:24.487Z,21.53
2022-11-03T05:03:53.951Z,21.53
2022-11-03T05:06:27.106Z,21.52
2022-11-03T05:08:58.494Z,21.53
2022-11-03T05:11:30.159Z,21.52
2022-11-03T05:14:00.495Z,21.52
2022-11-03T05:16:28.305Z,21.51
2022-11-03T05:18:54.731Z,21.51
2022-11-03T05:21:24.409Z,21.51
2022-11-03T05:23:58.133Z,21.52
2022-11-03T05:26:28.591Z,21.52
2022-11-03T05:29:01.659Z,21.52
2022-11-03T05:31:30.773Z,21.50
2022-11-03T05:33:59.990Z,21.50
2022-11-03T05:36:29.990Z,21.51
2022-11-03T05:39:12.723Z,21.52
2022-11-03T05:41:39.221Z,21.51
2022-11-03T05:44:22.332Z,21.53
2022-11-03T05:46:48.882Z,21.53
2022-11-03T05:49:15.369Z,21.50
2022-11-03T05:51:43.775Z,21.52
2022-11-03T05:54:20.911Z,21.53
2022-11-03T05:56:48.068Z,21.53
2022-11-03T05:59:20.618Z,21.53
2022-11-03T06:01:47.327Z,21.53
2022-11-03T06:04:32.751Z,21.53
2022-11-03T06:07:03.263Z,21.53
2022-11-03T06:09:33.679Z,21.53
2022-11-03T06:12:02.311Z,21.53
2022-11-03T06:14:31.249Z,21.59
2022-11-03T06:17:07.114Z,21.57
2022-11-03T06:19:44.695Z,21.56
2022-11-03T06:22:32.106Z,21.56
2022-11-03T06:25:01.588Z,21.56
2022-11-03T06:27:34.100Z,21.55
2022-11-03T06:30:10.124Z,21.56
2022-11-03T06:32:36.646Z,21.57
2022-11-03T06:35:03.646Z,21.57
2022-11-03T06:37:34.744Z,21.58
2022-11-03T06:40:34.948Z,21.56
2022-11-03T06:43:16.650Z,21.57
2022-11-03T06:45:52.016Z,21.57
2022-11-03T06:48:25.171Z,21.59
2022-11-03T06:50:52.189Z,21.59
2022-11-03T06:53:25.304Z,21.59
2022-11-03T06:55:52.053Z,21.59
2022-11-03T06:58:21.498Z,21.58
2022-11-03T07:00:51.281Z,21.61
2022-11-03T07:03:49.223Z,21.61
2022-11-03T07:06:15.537Z,21.60
2022-11-03T07:08:44.597Z,21.60
2022-11-03T07:11:14.109Z,21.60
2022-11-03T07:13:41.701Z,21.61
2022-11-03T07:16:34.292Z,21.60
2022-11-03T07:19:03.316Z,21.62
2022-11-03T07:21:32.598Z,21.62
2022-11-03T07:24:10.952Z,21.62
2022-11-03T07:26:37.429Z,21.61
2022-11-03T07:29:04.075Z,21.63
2022-11-03T07:31:31.834Z,21.63
2022-11-03T07:33:59.317Z,21.64
2022-11-03T07:36:31.053Z,21.64
2022-11-03T07:39:00.986Z,21.65
2022-11-03T07:41:34.215Z,21.66
2022-11-03T07:44:02.037Z,21.66
2022-11-03T07:46:29.037Z,21.65
2022-11-03T07:48:57.939Z,21.64
2022-11-03T07:51:37.432Z,21.66
2022-11-03T07:54:06.975Z,21.66
2022-11-03T07:56:43.259Z,21.67
2022-11-03T07:59:09.860Z,21.66
2022-11-03T08:02:00.286Z,21.69
2022-11-03T08:04:33.629Z,21.68
2022-11-03T08:07:00.164Z,21.68
2022-11-03T08:09:27.290Z,21.69
2022-11-03T08:11:53.789Z,21.69
2022-11-03T08:14:20.353Z,21.69
2022-11-03T08:16:47.003Z,21.69
2022-11-03T08:19:13.490Z,21.70
2022-11-03T08:21:39.965Z,21.70
2022-11-03T08:24:07.035Z,21.72
2022-11-03T08:26:33.633Z,21.70
2022-11-03T08:29:00.164Z,21.71
2022-11-03T08:31:27.095Z,21.70
2022-11-03T08:33:53.598Z,21.71
2022-11-03T08:36:20.847Z,21.73
2022-11-03T08:38:47.543Z,21.72
2022-11-03T08:41:14.010Z,21.71
2022-11-03T08:43:40.460Z,21.73
2022-11-03T08:46:16.682Z,21.71
2022-11-03T08:48:44.259Z,21.72
2022-11-03T08:51:13.470Z,21.71
2022-11-03T08:53:40.421Z,21.73
2022-11-03T08:56:10.463Z,21.75
2022-11-03T08:58:39.207Z,21.75
2022-11-03T09:01:05.892Z,21.75
2022-11-03T09:03:32.467Z,21.76
2022-11-03T09:05:59.062Z,21.77
2022-11-03T09:11:12.007Z,21.81
2022-11-03T09:13:38.466Z,21.81
2022-11-03T09:16:05.189Z,21.78
2022-11-03T09:18:33.990Z,21.78
2022-11-03T09:21:00.794Z,21.78
2022-11-03T09:23:27.383Z,21.79
2022-11-03T09:25:53.825Z,21.81
2022-11-03T09:28:20.255Z,21.81
2022-11-03T09:30:46.722Z,21.81
2022-11-03T09:33:13.217Z,21.82
2022-11-03T09:35:39.670Z,21.83
2022-11-03T09:38:07.934Z,21.83
2022-11-03T09:40:36.050Z,21.86
2022-11-03T09:43:02.872Z,21.86
2022-11-03T09:45:29.368Z,21.87
2022-11-03T09:47:56.562Z,21.85
2022-11-03T09:50:23.461Z,21.86
2022-11-03T09:52:55.331Z,21.86
2022-11-03T09:55:25.368Z,21.88
2022-11-03T09:57:57.483Z,21.88
2022-11-03T10:00:24.675Z,21.89
2022-11-03T10:02:51.322Z,21.85
2022-11-03T10:05:25.529Z,21.88
2022-11-03T10:07:56.860Z,21.90
2022-11-03T10:10:23.679Z,21.88
2022-11-03T10:12:53.068Z,21.89
2022-11-03T10:15:22.740Z,21.89
2022-11-03T10:17:50.670Z,21.89
2022-11-03T10:20:20.503Z,21.90
2022-11-03T10:22:50.643Z,21.90
2022-11-03T10:25:36.156Z,21.91
2022-11-03T10:28:22.091Z,21.89
2022-11-03T10:31:11.392Z,21.91
2022-11-03T10:33:41.353Z,21.91
2022-11-03T10:36:16.815Z,21.89
2022-11-03T10:38:43.779Z,21.89
2022-11-03T10:41:10.414Z,21.90
2022-11-03T10:43:38.024Z,21.90
2022-11-03T10:46:44.748Z,21.91
2022-11-03T10:49:18.412Z,21.90
2022-11-03T10:51:48.950Z,21.91
2022-11-03T10:54:17.463Z,21.91
2022-11-03T10:56:45.471Z,21.92
2022-11-03T10:59:20.606Z,21.93
2022-11-03T11:01:47.435Z,21.93
2022-11-03T11:04:16.955Z,21.93
2022-11-03T11:06:44.426Z,21.93
2022-11-03T11:09:13.894Z,21.92
2022-11-03T11:12:05.199Z,21.93
2022-11-03T11:14:34.783Z,21.93
2022-11-03T11:17:01.912Z,21.93
2022-11-03T11:19:29.922Z,21.94
2022-11-03T11:21:56.321Z,21.94
2022-11-03T11:24:44.573Z,21.96
2022-11-03T11:27:32.768Z,21.97
2022-11-03T11:30:00.466Z,21.95
2022-11-03T11:32:41.899Z,21.95
2022-11-03T11:35:09.871Z,21.94
2022-11-03T11:37:37.615Z,21.93
2022-11-03T11:40:13.255Z,21.92
2022-11-03T11:43:18.667Z,21.93
2022-11-03T11:46:22.378Z,21.92
2022-11-03T11:49:03.998Z,21.93
2022-11-03T11:51:40.425Z,21.94
2022-11-03T11:54:18.737Z,21.94
2022-11-03T11:56:47.499Z,21.95
2022-11-03T11:59:25.763Z,21.95
2022-11-03T12:01:54.974Z,21.95
2022-11-03T12:04:27.895Z,21.96
2022-11-03T12:06:55.817Z,21.96
2022-11-03T12:09:26.140Z,21.95
2022-11-03T12:11:56.456Z,21.96
2022-11-03T12:14:29.111Z,21.95
2022-11-03T12:17:19.051Z,21.96
2022-11-03T12:19:47.828Z,21.97
2022-11-03T12:22:23.119Z,21.94
2022-11-03T12:24:52.738Z,21.95
2022-11-03T12:27:25.001Z,21.95
2022-11-03T12:29:56.119Z,21.95
2022-11-03T12:32:33.631Z,21.93
2022-11-03T12:35:07.571Z,21.94
2022-11-03T12:37:34.143Z,21.95
2022-11-03T12:40:00.775Z,21.96
2022-11-03T12:42:27.399Z,21.94
2022-11-03T12:44:53.929Z,21.93
2022-11-03T12:47:20.973Z,21.93
2022-11-03T12:49:47.529Z,21.92
2022-11-03T12:52:14.004Z,21.94
2022-11-03T12:54:42.089Z,21.91
2022-11-03T12:57:08.746Z,21.92
2022-11-03T12:59:35.421Z,21.90
2022-11-03T13:02:02.002Z,21.90
2022-11-03T13:04:28.638Z,21.90
2022-11-03T13:06:55.117Z,21.90
2022-11-03T13:09:21.620Z,21.88
2022-11-03T13:12:06.458Z,21.89
2022-11-03T13:14:33.086Z,21.90
2022-11-03T13:16:59.537Z,21.88
2022-11-03T13:19:25.987Z,21.90
2022-11-03T13:21:52.642Z,21.91
2022-11-03T13:24:19.132Z,21.93
2022-11-03T13:26:45.629Z,21.91
2022-11-03T13:29:12.079Z,21.90
2022-11-03T13:31:38.523Z,21.90
2022-11-03T13:34:04.980Z,21.90
2022-11-03T13:36:31.527Z,21.89
2022-11-03T13:38:58.018Z,21.90
2022-11-03T13:41:24.482Z,21.91
2022-11-03T13:43:50.966Z,21.92
2022-11-03T13:46:17.431Z,21.89
2022-11-03T13:51:30.505Z,21.89
2022-11-03T13:59:29.998Z,21.92
2022-11-03T14:04:43.842Z,21.87
2022-11-03T14:07:10.954Z,21.91
2022-11-03T14:12:27.159Z,21.90
2022-11-03T14:14:53.649Z,21.89
2022-11-03T14:17:20.152Z,21.87
2022-11-03T14:19:52.161Z,21.87
2022-11-03T14:22:20.404Z,21.85
2022-11-03T14:24:46.923Z,21.85
2022-11-03T14:27:15.744Z,21.83
2022-11-03T14:29:43.769Z,21.87
2022-11-03T14:32:11.523Z,21.87
2022-11-03T14:34:38.598Z,21.86
2022-11-03T14:37:06.042Z,21.86
2022-11-03T14:39:32.601Z,21.90
2022-11-03T14:42:04.887Z,21.90
2022-11-03T14:44:39.297Z,21.89
2022-11-03T14:47:07.714Z,21.91
2022-11-03T14:49:35.110Z,21.90
2022-11-03T14:52:02.392Z,21.89
2022-11-03T14:54:30.585Z,21.87
2022-11-03T14:56:57.339Z,21.87
2022-11-03T14:59:24.909Z,21.88
2022-11-03T15:01:52.915Z,21.89
2022-11-03T15:04:21.026Z,21.88
2022-11-03T15:06:48.274Z,21.87
2022-11-03T15:09:15.265Z,21.90
2022-11-03T15:11:42.809Z,21.91
2022-11-03T15:14:09.353Z,21.92
2022-11-03T15:16:36.790Z,21.91
2022-11-03T15:19:04.223Z,21.91
2022-11-03T15:21:31.504Z,21.93
2022-11-03T15:26:45.093Z,21.91
2022-11-03T15:29:11.590Z,21.90
2022-11-03T15:31:39.219Z,21.93
2022-11-03T15:34:08.650Z,21.91
2022-11-03T15:36:35.777Z,21.93
2022-11-03T15:39:02.287Z,21.92
2022-11-03T15:41:28.787Z,21.93
2022-11-03T15:43:55.287Z,21.93
2022-11-03T15:46:21.753Z,21.94
2022-11-03T15:48:49.289Z,21.93
2022-11-03T15:51:15.843Z,21.93
2022-11-03T15:53:43.692Z,21.93
2022-11-03T15:56:10.343Z,21.94
2022-11-03T15:58:37.599Z,21.93
2022-11-03T16:01:05.139Z,21.90
2022-11-03T16:07:06.740Z,21.89
2022-11-03T16:09:18.287Z,21.90
2022-11-03T16:11:44.740Z,21.87
2022-11-03T16:14:11.179Z,21.89
2022-11-03T16:16:37.699Z,21.91
2022-11-03T16:19:04.262Z,21.91
2022-11-03T16:21:30.721Z,21.93
2022-11-03T16:23:57.157Z,21.92
2022-11-03T16:26:24.243Z,21.90
2022-11-03T16:28:51.258Z,21.90
2022-11-03T16:31:17.786Z,21.89
2022-11-03T16:33:44.769Z,21.89
2022-11-03T16:36:11.244Z,21.89
2022-11-03T16:38:37.698Z,21.92
2022-11-03T16:41:04.147Z,21.92
2022-11-03T16:43:30.603Z,21.92
2022-11-03T16:45:57.274Z,21.93
2022-11-03T16:48:23.753Z,21.92
2022-11-03T16:50:54.185Z,21.93
2022-11-03T16:53:23.494Z,21.95
2022-11-03T16:55:50.023Z,21.95
2022-11-03T16:58:16.845Z,21.96
2022-11-03T17:00:43.323Z,21.96
2022-11-03T17:03:10.251Z,21.95
2022-11-03T17:05:36.839Z,21.96
2022-11-03T17:08:03.307Z,21.96
2022-11-03T17:10:31.846Z,21.96
2022-11-03T17:12:58.580Z,21.95
2022-11-03T17:15:25.038Z,21.96
2022-11-03T17:17:51.621Z,21.96
2022-11-03T17:20:18.389Z,21.97
2022-11-03T17:22:44.815Z,21.94
2022-11-03T17:25:11.858Z,21.95
2022-11-03T17:27:44.138Z,21.96
2022-11-03T17:30:18.666Z,21.94
2022-11-03T17:32:45.206Z,21.93
2022-11-03T17:35:14.345Z,21.94
2022-11-03T17:37:40.860Z,21.94
2022-11-03T17:40:15.439Z,21.95
2022-11-03T17:42:42.062Z,21.96
2022-11-03T17:45:13.898Z,21.96
2022-11-03T17:47:40.839Z,21.96
2022-11-03T17:50:08.781Z,21.96
2022-11-03T17:52:36.318Z,21.96
2022-11-03T17:55:04.989Z,21.96
2022-11-03T17:57:31.534Z,21.97
2022-11-03T18:00:00.562Z,21.96
2022-11-03T18:02:30.816Z,21.96
2022-11-03T18:05:31.304Z,21.97
2022-11-03T18:07:59.770Z,21.97
2022-11-03T18:10:32.415Z,21.98
2022-11-03T18:13:17.687Z,21.98
2022-11-03T18:15:52.542Z,21.97
2022-11-03T18:18:26.247Z,21.99
2022-11-03T18:20:53.956Z,21.99
2022-11-03T18:23:30.387Z,21.98
2022-11-03T18:25:58.535Z,21.97
2022-11-03T18:28:24.995Z,21.98
2022-11-03T18:30:53.805Z,21.97
2022-11-03T18:33:25.339Z,21.98
2022-11-03T18:35:53.264Z,21.97
2022-11-03T18:38:22.607Z,21.97
2022-11-03T18:40:49.385Z,21.99
2022-11-03T18:43:20.026Z,21.98
2022-11-03T18:45:47.249Z,21.99
2022-11-03T18:48:20.806Z,21.98
2022-11-03T18:50:49.513Z,22.00
2022-11-03T18:53:18.868Z,21.99
2022-11-03T18:55:45.506Z,21.98
2022-11-03T18:58:17.426Z,21.97
2022-11-03T19:00:44.149Z,21.98
2022-11-03T19:03:15.388Z,21.97
2022-11-03T19:05:43.041Z,21.98
2022-11-03T19:08:19.592Z,21.97
2022-11-03T19:10:46.532Z,21.98
2022-11-03T19:13:19.985Z,21.98
2022-11-03T19:15:47.998Z,21.98
2022-11-03T19:18:14.601Z,21.98
2022-11-03T19:20:41.092Z,21.99
2022-11-03T19:23:09.634Z,21.99
2022-11-03T19:25:38.272Z,21.99
2022-11-03T19:28:05.859Z,21.99
2022-11-03T19:30:32.383Z,21.99
2022-11-03T19:32:58.982Z,21.99
2022-11-03T19:35:33.397Z,21.99
2022-11-03T19:38:03.475Z,21.99
2022-11-03T19:40:30.242Z,22.00
2022-11-03T19:42:57.428Z,22.00
2022-11-03T19:45:24.355Z,22.00
2022-11-03T19:50:47.307Z,21.98
2022-11-03T19:53:21.009Z,21.98
2022-11-03T19:55:48.131Z,21.98
2022-11-03T19:58:17.110Z,21.99
2022-11-03T20:00:45.425Z,21.99
2022-11-03T20:03:12.163Z,22.01
2022-11-03T20:05:42.892Z,22.00
2022-11-03T20:08:18.979Z,22.00
2022-11-03T20:10:47.724Z,22.00
2022-11-03T20:13:16.558Z,21.99
2022-11-03T20:15:43.040Z,22.00
2022-11-03T20:18:13.435Z,21.99
2022-11-03T20:20:41.930Z,22.00
2022-11-03T20:23:22.301Z,22.01
2022-11-03T20:25:49.282Z,22.01
2022-11-03T20:28:19.615Z,22.01
2022-11-03T20:30:46.374Z,22.01
2022-11-03T20:33:15.706Z,22.00
2022-11-03T20:35:43.419Z,22.00
2022-11-03T20:38:12.626Z,22.01
2022-11-03T20:40:39.965Z,22.00
2022-11-03T20:43:07.510Z,22.00
2022-11-03T20:45:34.256Z,22.00
2022-11-03T20:48:00.715Z,22.02
2022-11-03T20:50:31.409Z,22.00
2022-11-03T20:52:59.208Z,22.00
2022-11-03T20:55:27.383Z,21.99
2022-11-03T20:57:55.395Z,21.99
2022-11-03T21:00:31.601Z,22.01
2022-11-03T21:02:58.099Z,22.00
2022-11-03T21:05:27.804Z,22.00
2022-11-03T21:07:55.651Z,22.00
2022-11-03T21:10:23.679Z,22.00
2022-11-03T21:12:51.927Z,22.00
2022-11-03T21:16:03.708Z,22.00
2022-11-03T21:18:47.950Z,22.00
2022-11-03T21:21:20.513Z,22.00
2022-11-03T21:23:47.581Z,21.97
2022-11-03T21:26:14.132Z,21.98
2022-11-03T21:28:40.667Z,21.98
2022-11-03T21:31:12.934Z,21.98
2022-11-03T21:33:39.381Z,21.97
2022-11-03T21:36:06.091Z,21.96
2022-11-03T21:38:32.542Z,21.96
2022-11-03T21:41:18.983Z,21.96
2022-11-03T21:44:04.243Z,21.97
2022-11-03T21:46:30.754Z,21.96
2022-11-03T21:49:15.930Z,21.96
2022-11-03T21:51:42.385Z,21.95
2022-11-03T21:54:08.862Z,21.97
2022-11-03T21:56:35.414Z,22.00
2022-11-03T21:59:01.867Z,22.00
2022-11-03T22:01:29.562Z,22.02
2022-11-03T22:03:56.774Z,22.05
2022-11-03T22:06:23.235Z,22.09
2022-11-03T22:08:49.694Z,22.13
2022-11-03T22:11:22.126Z,22.15
2022-11-03T22:13:55.147Z,22.18
2022-11-03T22:16:37.100Z,22.24
2022-11-03T22:19:23.562Z,22.26
2022-11-03T22:22:08.897Z,22.31
2022-11-03T22:24:54.647Z,22.34
2022-11-03T22:27:21.646Z,22.40
2022-11-03T22:30:06.627Z,22.43
2022-11-03T22:32:33.168Z,22.47
2022-11-03T22:35:18.282Z,22.51
2022-11-03T22:37:44.802Z,22.55
2022-11-03T22:40:29.883Z,22.60
2022-11-03T22:43:18.735Z,22.63
2022-11-03T22:45:51.367Z,22.70
2022-11-03T22:48:23.165Z,22.75
2022-11-03T22:51:07.517Z,22.81
2022-11-03T22:53:53.644Z,22.87
2022-11-03T22:56:20.974Z,22.92
2022-11-03T22:58:47.650Z,22.97
2022-11-03T23:01:17.640Z,22.98
2022-11-03T23:03:45.939Z,23.02
2022-11-03T23:06:15.909Z,23.01
2022-11-03T23:08:44.037Z,22.97
2022-11-03T23:11:18.385Z,22.95
2022-11-03T23:14:02.938Z,22.94
2022-11-03T23:16:35.287Z,22.93
2022-11-03T23:19:21.178Z,22.92
2022-11-03T23:21:50.112Z,22.90
2022-11-03T23:24:45.378Z,22.87
2022-11-03T23:27:13.030Z,22.88
2022-11-03T23:29:39.651Z,22.87
2022-11-03T23:32:06.198Z,22.86
2022-11-03T23:34:34.893Z,22.86
2022-11-03T23:37:01.724Z,22.86
2022-11-03T23:39:28.179Z,22.87
2022-11-03T23:41:54.631Z,22.86
2022-11-03T23:44:21.080Z,22.84
2022-11-03T23:47:05.932Z,22.86
2022-11-03T23:49:32.437Z,22.83
2022-11-03T23:51:59.013Z,22.83
2022-11-03T23:54:27.168Z,22.84
2022-11-03T23:57:12.038Z,22.82
2022-11-03T23:59:38.575Z,22.80
